Time;durP1;ratioP1;P1;durP2;ratioP2;P2;SDS_P1;SDS_P2;PMS_P1;PMS_P2;Temp;Humidity;BMP_temperature;BMP_pressure;BME280_temperature;BME280_humidity;BME280_pressure;Samples;Min_cycle;Max_cycle;Signal;HPM_P1;HPM_P2
2023/09/17 00:00:24;;;;;;;15.13;11.00;;;;;;;;;;2074104;28;20045;-62
2023/09/17 00:01:25;;;;;;;16.17;11.45;;;;;;;;;;2074029;28;20034;-62
2023/09/17 00:02:26;;;;;;;13.43;10.93;;;;;;;;;;2074164;28;20390;-62
2023/09/17 00:03:26;;;;;;;13.52;11.18;;;;;;;;;;2073525;28;20046;-62
2023/09/17 00:04:27;;;;;;;14.05;11.45;;;;;;;;;;2073793;28;20049;-62
2023/09/17 00:05:28;;;;;;;14.02;11.02;;;;;;;;;;2073763;28;20080;-62
2023/09/17 00:06:29;;;;;;;16.60;11.77;;;;;;;;;;2074139;28;20042;-62
2023/09/17 00:07:30;;;;;;;14.40;11.98;;;;;;;;;;2074254;28;20033;-62
2023/09/17 00:08:30;;;;;;;15.73;13.25;;;;;;;;;;2074060;28;20052;-62
2023/09/17 00:09:31;;;;;;;15.23;12.45;;;;;;;;;;2074039;28;20041;-62
2023/09/17 00:10:32;;;;;;;14.73;12.40;;;;;;;;;;2074030;28;20078;-63
2023/09/17 00:11:32;;;;;;;15.75;13.02;;;;;;;;;;2074014;28;20038;-62
2023/09/17 00:12:33;;;;;;;15.65;12.90;;;;;;;;;;2074377;28;20037;-62
2023/09/17 00:13:35;;;;;;;17.38;13.32;;;;;;;;;;2074003;28;20057;-62
2023/09/17 00:14:35;;;;;;;15.65;13.07;;;;;;;;;;2073126;28;20417;-62
2023/09/17 00:15:36;;;;;;;16.58;13.18;;;;;;;;;;2073241;28;20054;-62
2023/09/17 00:16:38;;;;;;;15.40;12.90;;;;;;;;;;2074063;28;20029;-62
2023/09/17 00:17:39;;;;;;;17.40;13.82;;;;;;;;;;2073139;28;20046;-62
2023/09/17 00:18:39;;;;;;;15.57;13.38;;;;;;;;;;2073139;28;20054;-62
2023/09/17 00:19:40;;;;;;;18.10;14.40;;;;;;;;;;2065529;28;20041;-62
2023/09/17 00:20:41;;;;;;;20.05;15.05;;;;;;;;;;2073436;28;20041;-62
2023/09/17 00:21:42;;;;;;;21.92;15.30;;;;;;;;;;2074280;28;20088;-62
2023/09/17 00:22:42;;;;;;;18.65;15.25;;;;;;;;;;2073276;28;20042;-62
2023/09/17 00:23:43;;;;;;;21.50;15.40;;;;;;;;;;2064658;28;20069;-62
2023/09/17 00:24:44;;;;;;;19.27;15.02;;;;;;;;;;2073655;28;20091;-62
2023/09/17 00:25:45;;;;;;;19.52;15.23;;;;;;;;;;2074109;28;20050;-62
2023/09/17 00:26:45;;;;;;;23.27;15.65;;;;;;;;;;2073694;28;20069;-62
2023/09/17 00:27:46;;;;;;;18.42;15.73;;;;;;;;;;2073045;28;20030;-62
2023/09/17 00:28:47;;;;;;;25.00;17.58;;;;;;;;;;2064984;28;20050;-62
2023/09/17 00:29:47;;;;;;;23.70;17.20;;;;;;;;;;2065275;28;20046;-61
2023/09/17 00:30:48;;;;;;;21.67;17.17;;;;;;;;;;2073128;28;20044;-62
2023/09/17 00:31:49;;;;;;;21.52;16.98;;;;;;;;;;2073390;28;20124;-62
2023/09/17 00:32:50;;;;;;;22.65;18.02;;;;;;;;;;2073242;28;20060;-62
2023/09/17 00:33:50;;;;;;;22.98;18.02;;;;;;;;;;2073479;28;20508;-62
2023/09/17 00:34:51;;;;;;;21.17;17.55;;;;;;;;;;2073051;28;20399;-62
2023/09/17 00:35:52;;;;;;;22.33;16.90;;;;;;;;;;2072760;28;20485;-62
2023/09/17 00:36:53;;;;;;;22.73;17.58;;;;;;;;;;2072717;28;20097;-62
2023/09/17 00:37:53;;;;;;;20.92;17.08;;;;;;;;;;2073321;28;20034;-62
2023/09/17 00:38:54;;;;;;;21.80;17.10;;;;;;;;;;2073402;28;20041;-62
2023/09/17 00:39:55;;;;;;;23.45;16.75;;;;;;;;;;2073548;28;20078;-62
2023/09/17 00:40:55;;;;;;;21.02;17.02;;;;;;;;;;2073907;28;20030;-62
2023/09/17 00:41:56;;;;;;;19.42;15.43;;;;;;;;;;2073791;28;20478;-62
2023/09/17 00:42:57;;;;;;;20.60;16.63;;;;;;;;;;2072844;28;20064;-62
2023/09/17 00:43:58;;;;;;;24.40;16.38;;;;;;;;;;2064822;28;20573;-62
2023/09/17 00:44:58;;;;;;;22.70;16.58;;;;;;;;;;2073418;28;20474;-62
2023/09/17 00:45:59;;;;;;;27.27;20.17;;;;;;;;;;2073580;28;20065;-61
2023/09/17 00:47:03;;;;;;;26.75;19.08;;;;;;;;;;2073389;28;20046;-62
2023/09/17 00:48:04;;;;;;;29.98;23.50;;;;;;;;;;2064617;28;20387;-62
2023/09/17 00:49:05;;;;;;;29.60;23.17;;;;;;;;;;2057753;28;20046;-61
2023/09/17 00:50:06;;;;;;;32.92;24.08;;;;;;;;;;2073471;28;20049;-62
2023/09/17 00:51:07;;;;;;;31.23;23.85;;;;;;;;;;2072922;28;20049;-62
2023/09/17 00:52:11;;;;;;;33.30;25.25;;;;;;;;;;2073255;28;20049;-62
2023/09/17 00:53:12;;;;;;;31.88;24.58;;;;;;;;;;2073163;28;20406;-62
2023/09/17 00:54:13;;;;;;;34.88;25.73;;;;;;;;;;2073257;28;20026;-62
2023/09/17 00:55:13;;;;;;;38.40;26.85;;;;;;;;;;2072944;28;20070;-62
2023/09/17 00:56:14;;;;;;;30.58;24.77;;;;;;;;;;2072713;28;20049;-62
2023/09/17 00:57:16;;;;;;;35.70;26.02;;;;;;;;;;2065202;28;20046;-61
2023/09/17 00:58:17;;;;;;;36.00;27.13;;;;;;;;;;2057491;28;20047;-62
2023/09/17 00:59:17;;;;;;;35.15;28.40;;;;;;;;;;2065009;28;20046;-62
2023/09/17 01:00:21;;;;;;;37.50;26.45;;;;;;;;;;2072556;28;20049;-62
2023/09/17 01:01:21;;;;;;;36.35;28.38;;;;;;;;;;2064861;28;20046;-62
2023/09/17 01:02:22;;;;;;;34.90;29.13;;;;;;;;;;2065301;28;20039;-63
2023/09/17 01:03:23;;;;;;;34.40;25.17;;;;;;;;;;2072920;28;20042;-62
2023/09/17 01:04:24;;;;;;;32.05;22.70;;;;;;;;;;2072851;28;20465;-62
2023/09/17 01:05:25;;;;;;;35.55;21.50;;;;;;;;;;2065343;28;20034;-62
2023/09/17 01:06:28;;;;;;;32.55;23.83;;;;;;;;;;2065193;28;20049;-62
2023/09/17 01:07:28;;;;;;;30.33;23.67;;;;;;;;;;2073199;28;20462;-62
2023/09/17 01:08:29;;;;;;;27.35;21.83;;;;;;;;;;2074068;28;20046;-62
2023/09/17 01:09:30;;;;;;;31.48;23.45;;;;;;;;;;2073078;28;20505;-62
2023/09/17 01:10:32;;;;;;;26.42;21.80;;;;;;;;;;2073218;28;20129;-62
2023/09/17 01:11:33;;;;;;;26.70;21.73;;;;;;;;;;2073950;28;20390;-62
2023/09/17 01:12:33;;;;;;;30.55;23.88;;;;;;;;;;2073126;28;20038;-62
2023/09/17 01:13:39;;;;;;;33.33;22.95;;;;;;;;;;2072782;28;20539;-62
2023/09/17 01:14:40;;;;;;;28.85;21.83;;;;;;;;;;2073837;28;20378;-62
2023/09/17 01:15:40;;;;;;;26.25;22.17;;;;;;;;;;2073298;28;20033;-62
2023/09/17 01:16:45;;;;;;;30.88;23.02;;;;;;;;;;2072973;28;20030;-63
2023/09/17 01:17:45;;;;;;;31.02;24.13;;;;;;;;;;2073858;28;20054;-62
2023/09/17 01:18:47;;;;;;;30.55;23.55;;;;;;;;;;2072960;28;20041;-62
2023/09/17 01:19:52;;;;;;;29.42;24.05;;;;;;;;;;2065118;28;20050;-62
2023/09/17 01:20:56;;;;;;;26.67;22.10;;;;;;;;;;2065420;28;20038;-62
2023/09/17 01:22:03;;;;;;;28.08;23.42;;;;;;;;;;2073420;28;20504;-62
2023/09/17 01:23:08;;;;;;;27.77;22.83;;;;;;;;;;2073781;28;20369;-62
2023/09/17 01:24:14;;;;;;;30.92;23.30;;;;;;;;;;2073050;28;20118;-62
2023/09/17 01:25:15;;;;;;;33.75;25.20;;;;;;;;;;2073354;28;20034;-62
2023/09/17 01:26:16;;;;;;;29.48;23.23;;;;;;;;;;2073679;28;20124;-62
2023/09/17 01:27:18;;;;;;;31.85;23.73;;;;;;;;;;2073641;28;20470;-62
2023/09/17 01:28:19;;;;;;;33.25;24.60;;;;;;;;;;2064641;28;20046;-62
2023/09/17 01:29:22;;;;;;;30.13;24.35;;;;;;;;;;2064607;28;20074;-61
2023/09/17 01:30:23;;;;;;;34.35;24.92;;;;;;;;;;2073758;28;20049;-62
2023/09/17 01:31:25;;;;;;;30.90;23.95;;;;;;;;;;2072775;28;20478;-62
2023/09/17 01:32:26;;;;;;;34.05;25.33;;;;;;;;;;2073114;28;20041;-62
2023/09/17 01:33:28;;;;;;;29.08;23.50;;;;;;;;;;2073838;28;20038;-62
2023/09/17 01:34:28;;;;;;;31.70;25.30;;;;;;;;;;2073784;28;20049;-62
2023/09/17 01:35:29;;;;;;;31.25;23.92;;;;;;;;;;2073120;28;20048;-62
2023/09/17 01:36:33;;;;;;;32.30;24.52;;;;;;;;;;2064575;28;20042;-62
2023/09/17 01:37:36;;;;;;;33.70;24.00;;;;;;;;;;2065542;28;20158;-61
2023/09/17 01:38:39;;;;;;;33.90;24.67;;;;;;;;;;2057112;28;20057;-62
2023/09/17 01:39:41;;;;;;;28.60;21.83;;;;;;;;;;2057238;28;20507;-62
2023/09/17 01:40:42;;;;;;;28.73;22.65;;;;;;;;;;2073026;28;20129;-62
2023/09/17 01:41:43;;;;;;;24.95;21.90;;;;;;;;;;2072608;28;20046;-62
2023/09/17 01:42:44;;;;;;;26.42;21.42;;;;;;;;;;2065126;28;20557;-62
2023/09/17 01:43:45;;;;;;;25.88;20.10;;;;;;;;;;2072482;28;20045;-62
2023/09/17 01:44:46;;;;;;;23.33;19.02;;;;;;;;;;2073748;28;20497;-62
2023/09/17 01:45:47;;;;;;;23.80;18.80;;;;;;;;;;2073503;28;20080;-62
2023/09/17 01:46:48;;;;;;;24.48;18.73;;;;;;;;;;2072516;28;20070;-61
2023/09/17 01:47:49;;;;;;;20.25;17.73;;;;;;;;;;2056835;28;20047;-61
2023/09/17 01:48:49;;;;;;;20.35;16.38;;;;;;;;;;2064681;28;20390;-61
2023/09/17 01:49:50;;;;;;;20.08;15.50;;;;;;;;;;2056588;28;20055;-62
2023/09/17 01:50:52;;;;;;;21.30;17.70;;;;;;;;;;2065066;28;20030;-62
2023/09/17 01:51:53;;;;;;;23.17;17.70;;;;;;;;;;2074358;28;20033;-61
2023/09/17 01:52:53;;;;;;;20.58;17.02;;;;;;;;;;2064671;28;20042;-61
2023/09/17 01:53:54;;;;;;;20.30;17.05;;;;;;;;;;2064967;28;20050;-62
2023/09/17 01:54:55;;;;;;;21.65;17.50;;;;;;;;;;2072446;28;20049;-63
2023/09/17 01:55:56;;;;;;;19.70;17.30;;;;;;;;;;2073543;28;20445;-61
2023/09/17 01:56:57;;;;;;;21.85;18.33;;;;;;;;;;2072950;28;20045;-62
2023/09/17 01:57:57;;;;;;;22.90;17.85;;;;;;;;;;2064672;28;20035;-61
2023/09/17 01:58:58;;;;;;;22.33;17.77;;;;;;;;;;2064705;28;20066;-62
2023/09/17 01:59:59;;;;;;;23.40;18.13;;;;;;;;;;2064659;28;20042;-62
2023/09/17 02:01:00;;;;;;;25.63;17.77;;;;;;;;;;2073069;28;20030;-63
2023/09/17 02:02:01;;;;;;;23.08;19.42;;;;;;;;;;2073550;28;20034;-62
2023/09/17 02:03:05;;;;;;;24.65;19.33;;;;;;;;;;2073589;28;20036;-62
2023/09/17 02:04:06;;;;;;;22.85;19.45;;;;;;;;;;2073602;28;20041;-62
2023/09/17 02:05:07;;;;;;;24.70;18.17;;;;;;;;;;2073591;28;20426;-62
2023/09/17 02:06:07;;;;;;;24.73;20.23;;;;;;;;;;2073594;28;20120;-61
2023/09/17 02:07:09;;;;;;;25.70;19.23;;;;;;;;;;2073778;28;20036;-60
2023/09/17 02:08:09;;;;;;;25.67;18.88;;;;;;;;;;2073574;28;20045;-61
2023/09/17 02:09:11;;;;;;;25.13;21.42;;;;;;;;;;2073565;28;20520;-62
2023/09/17 02:10:12;;;;;;;28.27;21.20;;;;;;;;;;2073011;28;20482;-62
2023/09/17 02:11:13;;;;;;;31.90;22.67;;;;;;;;;;2064923;28;20050;-62
2023/09/17 02:12:14;;;;;;;25.80;19.35;;;;;;;;;;2073103;28;20045;-61
2023/09/17 02:13:16;;;;;;;30.63;21.60;;;;;;;;;;2075013;28;20046;-62
2023/09/17 02:14:17;;;;;;;29.48;22.42;;;;;;;;;;2074330;28;20045;-62
2023/09/17 02:15:19;;;;;;;27.33;21.15;;;;;;;;;;2074314;28;20033;-62
2023/09/17 02:16:20;;;;;;;29.38;21.77;;;;;;;;;;2065925;28;20049;-62
2023/09/17 02:17:21;;;;;;;30.70;24.50;;;;;;;;;;2066087;28;20498;-62
2023/09/17 02:18:22;;;;;;;31.75;24.17;;;;;;;;;;2073933;28;20050;-62
2023/09/17 02:19:25;;;;;;;31.15;24.40;;;;;;;;;;2066263;28;20121;-62
2023/09/17 02:20:25;;;;;;;30.80;24.90;;;;;;;;;;2066407;28;20509;-62
2023/09/17 02:21:26;;;;;;;30.20;24.92;;;;;;;;;;2073779;28;20049;-62
2023/09/17 02:22:27;;;;;;;30.92;23.60;;;;;;;;;;2065576;28;20046;-62
2023/09/17 02:23:29;;;;;;;31.77;24.88;;;;;;;;;;2073510;28;20065;-62
2023/09/17 02:24:29;;;;;;;31.42;22.88;;;;;;;;;;2075089;28;20509;-62
2023/09/17 02:25:30;;;;;;;32.20;22.83;;;;;;;;;;2074283;28;20061;-61
2023/09/17 02:26:31;;;;;;;33.22;24.27;;;;;;;;;;2073950;28;20041;-62
2023/09/17 02:27:32;;;;;;;30.52;23.80;;;;;;;;;;2073919;28;20046;-61
2023/09/17 02:28:33;;;;;;;31.00;23.60;;;;;;;;;;2074242;28;20049;-62
2023/09/17 02:29:33;;;;;;;29.90;22.38;;;;;;;;;;2073712;28;20101;-62
2023/09/17 02:30:34;;;;;;;28.25;22.05;;;;;;;;;;2074539;28;20045;-61
2023/09/17 02:31:35;;;;;;;29.65;23.05;;;;;;;;;;2074942;28;20073;-61
2023/09/17 02:32:38;;;;;;;30.30;23.52;;;;;;;;;;2074901;28;20409;-62
2023/09/17 02:33:40;;;;;;;31.08;22.08;;;;;;;;;;2074904;28;20038;-62
2023/09/17 02:34:41;;;;;;;28.52;22.05;;;;;;;;;;2073600;28;20049;-61
2023/09/17 02:35:41;;;;;;;27.48;22.38;;;;;;;;;;2065780;28;20069;-61
2023/09/17 02:36:42;;;;;;;28.45;23.25;;;;;;;;;;2074095;28;20042;-61
2023/09/17 02:37:43;;;;;;;28.20;20.67;;;;;;;;;;2073842;28;20041;-61
2023/09/17 02:38:45;;;;;;;29.00;22.55;;;;;;;;;;2073528;28;20045;-62
2023/09/17 02:39:46;;;;;;;28.58;21.65;;;;;;;;;;2074827;28;20509;-62
2023/09/17 02:40:47;;;;;;;29.80;22.23;;;;;;;;;;2074125;28;20045;-62
2023/09/17 02:41:48;;;;;;;31.08;21.17;;;;;;;;;;2073541;28;20092;-62
2023/09/17 02:42:48;;;;;;;27.33;21.20;;;;;;;;;;2074712;28;20108;-61
2023/09/17 02:43:49;;;;;;;28.73;21.40;;;;;;;;;;2074707;28;20466;-61
2023/09/17 02:44:50;;;;;;;28.20;21.98;;;;;;;;;;2074927;28;20025;-61
2023/09/17 02:45:53;;;;;;;25.52;19.23;;;;;;;;;;2074337;28;20041;-62
2023/09/17 02:46:54;;;;;;;24.20;19.30;;;;;;;;;;2073999;28;20044;-61
2023/09/17 02:47:55;;;;;;;29.50;22.02;;;;;;;;;;2074808;28;20474;-62
2023/09/17 02:48:56;;;;;;;26.90;21.83;;;;;;;;;;2073623;28;20038;-62
2023/09/17 02:49:57;;;;;;;26.38;20.52;;;;;;;;;;2074074;28;20418;-62
2023/09/17 02:50:57;;;;;;;25.98;18.55;;;;;;;;;;2073490;28;20042;-61
2023/09/17 02:51:58;;;;;;;23.48;18.25;;;;;;;;;;2074210;28;20038;-61
2023/09/17 02:52:59;;;;;;;24.38;19.05;;;;;;;;;;2074779;28;20045;-61
2023/09/17 02:54:00;;;;;;;26.13;20.42;;;;;;;;;;2074762;28;20042;-62
2023/09/17 02:55:02;;;;;;;28.05;20.25;;;;;;;;;;2074660;28;20049;-62
2023/09/17 02:56:04;;;;;;;26.27;20.63;;;;;;;;;;2073874;28;20398;-62
2023/09/17 02:57:05;;;;;;;25.83;17.55;;;;;;;;;;2073783;28;20038;-62
2023/09/17 02:58:06;;;;;;;23.35;18.95;;;;;;;;;;2065654;28;20419;-62
2023/09/17 02:59:07;;;;;;;22.67;18.88;;;;;;;;;;2074045;28;20042;-62
2023/09/17 03:00:10;;;;;;;21.20;18.05;;;;;;;;;;2074652;28;20057;-62
2023/09/17 03:01:17;;;;;;;24.95;18.05;;;;;;;;;;2073960;28;20041;-62
2023/09/17 03:02:19;;;;;;;21.85;15.77;;;;;;;;;;2066355;28;20050;-62
2023/09/17 03:03:20;;;;;;;23.02;16.17;;;;;;;;;;2066019;28;20045;-62
2023/09/17 03:04:22;;;;;;;20.60;15.80;;;;;;;;;;2065606;28;20046;-62
2023/09/17 03:05:22;;;;;;;21.60;16.30;;;;;;;;;;2073735;28;20052;-62
2023/09/17 03:06:23;;;;;;;20.75;14.57;;;;;;;;;;2074698;28;20087;-62
2023/09/17 03:07:24;;;;;;;19.25;14.98;;;;;;;;;;2073948;28;20128;-62
2023/09/17 03:08:26;;;;;;;19.15;14.88;;;;;;;;;;2073252;28;20088;-62
2023/09/17 03:09:27;;;;;;;22.13;17.13;;;;;;;;;;2073843;28;20045;-62
2023/09/17 03:10:28;;;;;;;20.42;16.75;;;;;;;;;;2065620;28;20050;-62
2023/09/17 03:11:29;;;;;;;19.88;16.38;;;;;;;;;;2065551;28;20046;-62
2023/09/17 03:12:34;;;;;;;20.20;16.50;;;;;;;;;;2073612;28;20486;-62
2023/09/17 03:13:37;;;;;;;18.60;14.93;;;;;;;;;;2065821;28;20201;-62
2023/09/17 03:14:39;;;;;;;20.00;15.25;;;;;;;;;;2066064;28;20045;-62
2023/09/17 03:15:41;;;;;;;17.77;15.18;;;;;;;;;;2065235;28;20045;-62
2023/09/17 03:16:43;;;;;;;19.05;15.50;;;;;;;;;;2073703;28;20076;-63
2023/09/17 03:17:45;;;;;;;20.98;15.18;;;;;;;;;;2065411;28;20043;-62
2023/09/17 03:18:46;;;;;;;17.73;13.68;;;;;;;;;;2065424;28;20046;-62
2023/09/17 03:19:46;;;;;;;20.92;15.63;;;;;;;;;;2073708;28;20050;-62
2023/09/17 03:20:49;;;;;;;18.42;15.73;;;;;;;;;;2065305;28;20039;-62
2023/09/17 03:21:50;;;;;;;18.42;14.68;;;;;;;;;;2065485;28;20042;-62
2023/09/17 03:22:51;;;;;;;17.67;13.52;;;;;;;;;;2073820;28;20033;-62
2023/09/17 03:23:52;;;;;;;19.73;14.55;;;;;;;;;;2073774;28;20040;-62
2023/09/17 03:24:56;;;;;;;17.50;13.65;;;;;;;;;;2065784;28;20049;-62
2023/09/17 03:25:57;;;;;;;16.40;13.98;;;;;;;;;;2073618;28;20038;-62
2023/09/17 03:26:58;;;;;;;15.88;13.63;;;;;;;;;;2065717;28;20042;-61
2023/09/17 03:28:02;;;;;;;15.50;12.73;;;;;;;;;;2065996;28;20483;-62
2023/09/17 03:29:03;;;;;;;17.42;13.55;;;;;;;;;;2073478;28;20557;-62
2023/09/17 03:30:04;;;;;;;15.82;13.02;;;;;;;;;;2065354;28;20092;-62
2023/09/17 03:31:05;;;;;;;17.65;12.65;;;;;;;;;;2074010;28;20044;-63
2023/09/17 03:32:05;;;;;;;15.43;12.82;;;;;;;;;;2073855;28;20042;-62
2023/09/17 03:33:06;;;;;;;15.30;12.68;;;;;;;;;;2073109;28;20042;-61
2023/09/17 03:34:15;;;;;;;15.90;12.65;;;;;;;;;;2073784;28;20072;-61
2023/09/17 03:35:16;;;;;;;18.48;12.38;;;;;;;;;;2065437;28;20042;-62
2023/09/17 03:36:17;;;;;;;17.23;13.02;;;;;;;;;;2073172;28;20049;-62
2023/09/17 03:37:18;;;;;;;17.45;12.77;;;;;;;;;;2073736;28;20046;-62
2023/09/17 03:38:19;;;;;;;15.30;12.07;;;;;;;;;;2065064;28;20478;-62
2023/09/17 03:39:20;;;;;;;16.90;14.05;;;;;;;;;;2065444;28;20046;-62
2023/09/17 03:40:21;;;;;;;19.30;13.20;;;;;;;;;;2065348;28;20506;-62
2023/09/17 03:41:22;;;;;;;16.55;13.18;;;;;;;;;;2073312;28;20080;-62
2023/09/17 03:42:23;;;;;;;17.75;13.55;;;;;;;;;;2073320;28;20129;-62
2023/09/17 03:43:23;;;;;;;17.20;13.60;;;;;;;;;;2073646;28;20057;-62
2023/09/17 03:44:24;;;;;;;16.25;13.23;;;;;;;;;;2073417;28;20034;-62
2023/09/17 03:45:25;;;;;;;17.30;13.40;;;;;;;;;;2073260;28;20061;-62
2023/09/17 03:46:27;;;;;;;14.55;12.40;;;;;;;;;;2073870;28;20038;-62
2023/09/17 03:47:28;;;;;;;18.92;13.65;;;;;;;;;;2065514;28;20512;-62
2023/09/17 03:48:31;;;;;;;15.98;12.98;;;;;;;;;;2057312;28;20058;-62
2023/09/17 03:49:32;;;;;;;17.73;13.90;;;;;;;;;;2057986;28;20506;-62
2023/09/17 03:50:32;;;;;;;17.73;12.50;;;;;;;;;;2065542;28;20039;-62
2023/09/17 03:51:33;;;;;;;20.05;13.32;;;;;;;;;;2073325;28;20493;-62
2023/09/17 03:52:35;;;;;;;18.90;12.98;;;;;;;;;;2074435;28;20540;-62
2023/09/17 03:53:35;;;;;;;15.05;13.45;;;;;;;;;;2073665;28;20046;-62
2023/09/17 03:54:36;;;;;;;15.93;12.90;;;;;;;;;;2065477;28;20038;-62
2023/09/17 03:55:37;;;;;;;16.88;12.88;;;;;;;;;;2073540;28;20049;-63
2023/09/17 03:56:38;;;;;;;16.80;12.63;;;;;;;;;;2073306;28;20079;-63
2023/09/17 03:57:39;;;;;;;16.25;12.88;;;;;;;;;;2073302;28;20052;-62
2023/09/17 03:58:40;;;;;;;15.43;12.65;;;;;;;;;;2073505;28;20070;-62
2023/09/17 03:59:41;;;;;;;15.60;12.35;;;;;;;;;;2065098;28;20077;-62
2023/09/17 04:00:43;;;;;;;17.90;12.40;;;;;;;;;;2073644;28;20033;-63
2023/09/17 04:01:44;;;;;;;17.05;12.63;;;;;;;;;;2073531;28;20494;-63
2023/09/17 04:02:46;;;;;;;16.85;12.82;;;;;;;;;;2065262;28;20034;-62
2023/09/17 04:03:48;;;;;;;17.15;12.05;;;;;;;;;;2065423;28;20548;-62
2023/09/17 04:04:49;;;;;;;16.70;12.60;;;;;;;;;;2073590;28;20038;-62
2023/09/17 04:05:50;;;;;;;15.32;12.73;;;;;;;;;;2073611;28;20061;-62
2023/09/17 04:06:51;;;;;;;14.10;12.65;;;;;;;;;;2074165;28;20038;-62
2023/09/17 04:07:52;;;;;;;16.67;12.88;;;;;;;;;;2073150;28;20034;-62
2023/09/17 04:08:52;;;;;;;16.27;13.07;;;;;;;;;;2057900;28;20082;-62
2023/09/17 04:09:53;;;;;;;15.05;12.70;;;;;;;;;;2057454;28;20039;-62
2023/09/17 04:10:54;;;;;;;15.38;13.00;;;;;;;;;;2073169;28;20049;-62
2023/09/17 04:11:55;;;;;;;19.98;13.13;;;;;;;;;;2073186;28;20452;-62
2023/09/17 04:12:56;;;;;;;16.25;13.02;;;;;;;;;;2073218;28;20038;-62
2023/09/17 04:13:56;;;;;;;16.98;13.75;;;;;;;;;;2073693;28;20069;-62
2023/09/17 04:14:57;;;;;;;14.52;12.75;;;;;;;;;;2073483;28;20065;-62
2023/09/17 04:15:58;;;;;;;15.65;12.77;;;;;;;;;;2072887;28;20084;-62
2023/09/17 04:16:59;;;;;;;16.92;13.70;;;;;;;;;;2073143;28;20072;-61
2023/09/17 04:18:00;;;;;;;16.88;14.32;;;;;;;;;;2073391;28;20045;-62
2023/09/17 04:19:01;;;;;;;16.33;13.60;;;;;;;;;;2074037;28;20049;-63
2023/09/17 04:20:03;;;;;;;17.20;13.75;;;;;;;;;;2074010;28;20085;-62
2023/09/17 04:21:04;;;;;;;18.30;13.63;;;;;;;;;;2074306;28;20040;-62
2023/09/17 04:22:04;;;;;;;18.75;14.98;;;;;;;;;;2074275;28;20472;-63
2023/09/17 04:23:06;;;;;;;16.65;14.05;;;;;;;;;;2074043;28;20042;-62
2023/09/17 04:24:06;;;;;;;16.33;13.85;;;;;;;;;;2073968;28;20029;-62
2023/09/17 04:25:10;;;;;;;17.02;13.68;;;;;;;;;;2073110;28;20457;-62
2023/09/17 04:26:13;;;;;;;19.00;13.73;;;;;;;;;;2065593;28;20050;-62
2023/09/17 04:27:15;;;;;;;18.33;13.80;;;;;;;;;;2065274;28;20363;-62
2023/09/17 04:28:16;;;;;;;16.73;14.95;;;;;;;;;;2073316;28;20466;-62
2023/09/17 04:29:17;;;;;;;18.30;14.43;;;;;;;;;;2064939;28;20050;-62
2023/09/17 04:30:18;;;;;;;15.13;13.43;;;;;;;;;;2056957;28;20043;-62
2023/09/17 04:31:19;;;;;;;17.38;13.98;;;;;;;;;;2065435;28;20069;-63
2023/09/17 04:32:20;;;;;;;16.85;13.82;;;;;;;;;;2065256;28;20065;-62
2023/09/17 04:33:21;;;;;;;16.08;12.55;;;;;;;;;;2065344;28;20054;-62
2023/09/17 04:34:22;;;;;;;17.08;13.30;;;;;;;;;;2073112;28;20050;-62
2023/09/17 04:35:23;;;;;;;20.20;13.95;;;;;;;;;;2073693;28;20452;-62
2023/09/17 04:36:23;;;;;;;18.00;12.90;;;;;;;;;;2073900;28;20050;-63
2023/09/17 04:37:24;;;;;;;16.30;12.85;;;;;;;;;;2072980;28;20053;-63
2023/09/17 04:38:27;;;;;;;20.52;14.30;;;;;;;;;;2064973;28;20042;-62
2023/09/17 04:39:28;;;;;;;19.13;13.90;;;;;;;;;;2064967;28;20478;-62
2023/09/17 04:40:29;;;;;;;16.98;14.23;;;;;;;;;;2072359;28;20050;-63
2023/09/17 04:41:32;;;;;;;19.05;14.18;;;;;;;;;;2073247;28;20524;-63
2023/09/17 04:42:33;;;;;;;17.95;13.60;;;;;;;;;;2073215;28;20050;-63
2023/09/17 04:43:34;;;;;;;19.63;14.15;;;;;;;;;;2065245;28;20038;-63
2023/09/17 04:44:35;;;;;;;17.92;13.93;;;;;;;;;;2073016;28;20041;-62
2023/09/17 04:45:39;;;;;;;17.33;14.00;;;;;;;;;;2073373;28;20045;-63
2023/09/17 04:46:59;;;;;;;17.40;13.25;;;;;;;;;;2073713;28;20037;-62
2023/09/17 04:47:59;;;;;;;18.27;12.73;;;;;;;;;;2073870;28;20034;-63
2023/09/17 04:49:02;;;;;;;15.45;12.77;;;;;;;;;;2072914;28;20433;-62
2023/09/17 04:50:08;;;;;;;15.23;12.35;;;;;;;;;;2065414;28;20034;-63
2023/09/17 04:51:12;;;;;;;15.60;13.48;;;;;;;;;;2065485;28;20110;-62
2023/09/17 04:52:13;;;;;;;15.95;12.80;;;;;;;;;;2065712;28;20425;-62
2023/09/17 04:53:14;;;;;;;17.02;12.65;;;;;;;;;;2064981;28;20138;-62
2023/09/17 04:54:18;;;;;;;17.67;13.02;;;;;;;;;;2073118;28;20075;-62
2023/09/17 04:55:19;;;;;;;19.70;13.85;;;;;;;;;;2072862;28;20088;-62
2023/09/17 04:56:20;;;;;;;17.42;13.50;;;;;;;;;;2065381;28;20418;-63
2023/09/17 04:57:21;;;;;;;16.08;11.32;;;;;;;;;;2065123;28;20383;-62
2023/09/17 04:58:22;;;;;;;15.10;11.23;;;;;;;;;;2072925;28;20038;-62
2023/09/17 04:59:23;;;;;;;14.15;11.75;;;;;;;;;;2072531;28;20689;-62
2023/09/17 05:00:24;;;;;;;16.75;12.07;;;;;;;;;;2064669;28;20050;-62
2023/09/17 05:01:25;;;;;;;13.48;10.93;;;;;;;;;;2064452;28;20431;-62
2023/09/17 05:02:26;;;;;;;17.70;11.27;;;;;;;;;;2072726;28;20042;-62
2023/09/17 05:03:27;;;;;;;12.98;11.00;;;;;;;;;;2072695;28;20494;-62
2023/09/17 05:04:28;;;;;;;13.18;10.93;;;;;;;;;;2072878;28;20049;-62
2023/09/17 05:05:30;;;;;;;15.13;10.50;;;;;;;;;;2073191;28;20041;-62
2023/09/17 05:06:31;;;;;;;13.43;9.38;;;;;;;;;;2073514;28;20053;-62
2023/09/17 05:07:32;;;;;;;14.35;10.43;;;;;;;;;;2073165;28;20402;-62
2023/09/17 05:08:33;;;;;;;9.95;8.55;;;;;;;;;;2065210;28;20478;-62
2023/09/17 05:09:35;;;;;;;12.95;10.65;;;;;;;;;;2064522;28;20042;-62
2023/09/17 05:10:35;;;;;;;11.02;9.32;;;;;;;;;;2073131;28;20049;-62
2023/09/17 05:11:36;;;;;;;11.60;9.40;;;;;;;;;;2073362;28;20042;-62
2023/09/17 05:12:37;;;;;;;11.95;9.48;;;;;;;;;;2065014;28;20208;-62
2023/09/17 05:13:38;;;;;;;11.63;9.20;;;;;;;;;;2064637;28;20057;-61
2023/09/17 05:14:38;;;;;;;11.95;9.25;;;;;;;;;;2073069;28;20042;-63
2023/09/17 05:15:39;;;;;;;10.48;9.10;;;;;;;;;;2064724;28;20049;-62
2023/09/17 05:16:40;;;;;;;12.98;8.68;;;;;;;;;;2056838;28;20081;-62
2023/09/17 05:17:41;;;;;;;10.85;8.63;;;;;;;;;;2064912;28;20058;-62
2023/09/17 05:18:43;;;;;;;10.55;8.65;;;;;;;;;;2065005;28;20038;-62
2023/09/17 05:19:44;;;;;;;12.95;8.73;;;;;;;;;;2065381;28;20049;-63
2023/09/17 05:20:48;;;;;;;12.00;9.02;;;;;;;;;;2064669;28;20112;-62
2023/09/17 05:21:49;;;;;;;11.07;8.50;;;;;;;;;;2072586;28;20041;-63
2023/09/17 05:22:50;;;;;;;10.45;8.25;;;;;;;;;;2073345;28;20034;-62
2023/09/17 05:23:51;;;;;;;10.07;8.20;;;;;;;;;;2072788;28;20068;-62
2023/09/17 05:24:52;;;;;;;9.43;7.22;;;;;;;;;;2072587;28;20449;-63
2023/09/17 05:25:55;;;;;;;10.43;7.80;;;;;;;;;;2064673;28;20451;-62
2023/09/17 05:26:56;;;;;;;12.00;8.10;;;;;;;;;;2064784;28;20058;-63
2023/09/17 05:27:57;;;;;;;9.73;7.13;;;;;;;;;;2064848;28;20034;-64
2023/09/17 05:28:58;;;;;;;8.57;7.22;;;;;;;;;;2064984;28;20491;-63
2023/09/17 05:29:59;;;;;;;8.57;7.10;;;;;;;;;;2064666;28;20074;-63
2023/09/17 05:31:00;;;;;;;11.65;7.35;;;;;;;;;;2072426;28;20041;-63
2023/09/17 05:32:01;;;;;;;8.75;7.53;;;;;;;;;;2065021;28;20364;-63
2023/09/17 05:33:02;;;;;;;9.32;7.13;;;;;;;;;;2064682;28;20080;-62
2023/09/17 05:34:03;;;;;;;10.52;7.53;;;;;;;;;;2064960;28;20042;-62
2023/09/17 05:35:05;;;;;;;8.23;7.00;;;;;;;;;;2064616;28;20490;-62
2023/09/17 05:36:06;;;;;;;9.23;7.03;;;;;;;;;;2064880;28;20065;-62
2023/09/17 05:37:07;;;;;;;10.13;7.38;;;;;;;;;;2072698;28;20048;-63
2023/09/17 05:38:08;;;;;;;9.93;6.68;;;;;;;;;;2072773;28;20053;-63
2023/09/17 05:39:09;;;;;;;10.57;6.65;;;;;;;;;;2064506;28;20497;-63
2023/09/17 05:40:10;;;;;;;8.75;6.40;;;;;;;;;;2064184;28;20057;-63
2023/09/17 05:41:12;;;;;;;8.75;7.30;;;;;;;;;;2064610;28;20046;-63
2023/09/17 05:42:13;;;;;;;10.27;7.53;;;;;;;;;;2065411;28;20076;-63
2023/09/17 05:43:13;;;;;;;10.63;7.25;;;;;;;;;;2072995;28;20056;-62
2023/09/17 05:44:15;;;;;;;10.43;8.05;;;;;;;;;;2072980;28;20038;-62
2023/09/17 05:45:16;;;;;;;8.40;7.25;;;;;;;;;;2064376;28;20050;-62
2023/09/17 05:46:16;;;;;;;9.35;7.40;;;;;;;;;;2064746;28;20045;-62
2023/09/17 05:47:19;;;;;;;9.68;8.05;;;;;;;;;;2074267;28;20057;-62
2023/09/17 05:48:20;;;;;;;12.00;8.50;;;;;;;;;;2075111;28;20049;-62
2023/09/17 05:49:20;;;;;;;10.30;7.70;;;;;;;;;;2074254;28;20099;-62
2023/09/17 05:50:21;;;;;;;11.80;8.10;;;;;;;;;;2074900;28;20066;-62
2023/09/17 05:51:22;;;;;;;9.98;7.63;;;;;;;;;;2074573;28;20050;-62
2023/09/17 05:52:23;;;;;;;10.07;7.50;;;;;;;;;;2066430;28;20035;-62
2023/09/17 05:53:23;;;;;;;9.40;7.50;;;;;;;;;;2066461;28;20034;-62
2023/09/17 05:54:25;;;;;;;9.35;7.78;;;;;;;;;;2074090;28;20053;-62
2023/09/17 05:55:28;;;;;;;9.02;7.80;;;;;;;;;;2074546;28;20045;-63
2023/09/17 05:56:30;;;;;;;10.20;7.35;;;;;;;;;;2066238;28;20042;-62
2023/09/17 05:57:31;;;;;;;10.45;7.85;;;;;;;;;;2066381;28;20347;-62